Detall de PIREP

Printer-friendly versionPDF version

[2014/05/30 19:01:00]
Flight IATA:CT2214
Pilot Number:044
Company ICAO:CAT
Aircraft Type:F100/A
PAX:99
Aircraft Registration:PFJ
Departing Airport: LFMP
Destination Airport: LFRS
Alternate Airport:LFBD
Online: VATSIM
Route:ORBIL/N0350F180 DCT LOMRA/N0450F360 UN727 AGN UN863 CNA UN863 MANAK
Flight Level:F360
No Slew and time accel
No pause
Crash detect
Detect pilot in Cockpit between each 30 and 45 minutes
19:01 Zero fuel Weight: 80533 Lbs, Fuel Weight: 9373 Lbs
19:01 VATSIM:LFMP 301830Z AUTO 32017G30KT 9999 NSC 20/08 Q1017
19:01 VATSIM:LFRS 301830Z 02003KT 350V050 9999 -SHRA SCT030 FEW046CB BKN086 17/12 Q1021 TEMPO 5000 -SHRA
19:02 Parking Brakes off
19:08 Take-off
19:08 Take off Weight: 89543 Lbs
19:08 Wind: 322º @ 017 Knots Heading: 327º
19:08 POS N42º 44´ 54´´ E002º 51´ 59´´
19:08 Flaps:1 at 184 Knots
19:08 Gear Up: 187 Knots
19:08 Flaps:0 at 197 Knots
19:23 Wind:283º@040 Knots Heading: 307º Ground Speed: 342 Knots Altitude 25774 ft
19:29 TOC
19:29 Fuel Weight: 6545 Lb
19:38 Wind:264º@024 Knots Heading: 330º Ground Speed: 413 Knots Altitude 36204 ft
19:43 TOD
19:43 Fuel Weight: 5604 Lb
19:53 Wind:299º@027 Knots Heading: 319º Ground Speed: 318 Knots Altitude 17726 ft
20:08 Wind:336º@008 Knots Heading: 335º Ground Speed: 250 Knots Altitude 3395 ft
20:10 Flaps:1 at 185 Knots
20:12 Flaps:2 at 167 Knots
20:12 Flaps:3 at 165 Knots
20:12 Flaps:4 at 160 Knots
20:13 Gear Down: 159 Knots
20:17 TouchDown:Rate -145 ft/min Speed: 120 Knots
20:17 VATSIM:LFRS 302000Z VRB02KT CAVOK 16/12 Q1021 NOSIG
20:17 Land
20:17 Wind:314º@003 Knots
20:17 Heading: 028º
20:17 Flight Duration: 01:09
20:17 Landing Weight: 84512 Lbs
20:17 POS N47º 09´ 15´´ W001º 36´ 35´´
20:19 Parking brakes on
20:19 Block to Block Duration: 01:17
20:19 Final Fuel: 3899 Lbls
20:19 Spent Fuel: 5473 Lbls
20:19 Flight Length: 350 NM
20:19 TOD Land Length: 150 NM

Exportar CSV

Powered by Drupal - Modified by Danger4k